sensor_id;sensor_type;location;lat;lon;timestamp;P1;durP1;ratioP1;P2;durP2;ratioP2
65053;SDS011;51639;47.828;35.038;2022-12-29T00:13:52;16.67;;;9.10;;
65053;SDS011;51639;47.828;35.038;2022-12-29T00:29:13;16.47;;;8.70;;
65053;SDS011;51639;47.828;35.038;2022-12-29T00:44:34;15.20;;;9.53;;
65053;SDS011;51639;47.828;35.038;2022-12-29T00:59:39;18.67;;;12.97;;
65053;SDS011;51639;47.828;35.038;2022-12-29T01:14:42;16.50;;;10.00;;
65053;SDS011;51639;47.828;35.038;2022-12-29T01:29:44;15.63;;;8.23;;
65053;SDS011;51639;47.828;35.038;2022-12-29T01:59:51;23.07;;;9.17;;
65053;SDS011;51639;47.828;35.038;2022-12-29T02:14:58;18.43;;;7.33;;
65053;SDS011;51639;47.828;35.038;2022-12-29T02:45:16;14.33;;;8.33;;
65053;SDS011;51639;47.828;35.038;2022-12-29T03:00:32;12.90;;;7.50;;
65053;SDS011;51639;47.828;35.038;2022-12-29T03:15:40;15.50;;;8.80;;
65053;SDS011;51639;47.828;35.038;2022-12-29T03:31:02;15.40;;;7.37;;
65053;SDS011;51639;47.828;35.038;2022-12-29T03:46:07;18.70;;;10.23;;
65053;SDS011;51639;47.828;35.038;2022-12-29T04:01:09;11.70;;;6.73;;
65053;SDS011;51639;47.828;35.038;2022-12-29T07:22:56;12.40;;;5.67;;
65053;SDS011;51639;47.828;35.038;2022-12-29T07:37:58;8.30;;;4.73;;
65053;SDS011;51639;47.828;35.038;2022-12-29T07:53:00;9.03;;;5.23;;
65053;SDS011;51639;47.828;35.038;2022-12-29T08:08:03;14.63;;;6.90;;
65053;SDS011;51639;47.828;35.038;2022-12-29T08:23:05;10.93;;;5.00;;
65053;SDS011;51639;47.828;35.038;2022-12-29T08:38:07;16.10;;;5.73;;
65053;SDS011;51639;47.828;35.038;2022-12-29T08:53:09;9.37;;;6.17;;
65053;SDS011;51639;47.828;35.038;2022-12-29T09:08:14;8.10;;;5.20;;
65053;SDS011;51639;47.828;35.038;2022-12-29T09:23:22;14.07;;;6.90;;
65053;SDS011;51639;47.828;35.038;2022-12-29T09:38:25;11.60;;;5.47;;
65053;SDS011;51639;47.828;35.038;2022-12-29T10:23:42;11.97;;;5.23;;
65053;SDS011;51639;47.828;35.038;2022-12-29T10:38:52;8.23;;;4.20;;
65053;SDS011;51639;47.828;35.038;2022-12-29T10:54:08;8.87;;;4.40;;
65053;SDS011;51639;47.828;35.038;2022-12-29T11:09:19;5.93;;;3.30;;
65053;SDS011;51639;47.828;35.038;2022-12-29T11:24:46;6.83;;;3.70;;
65053;SDS011;51639;47.828;35.038;2022-12-29T11:40:03;6.67;;;3.60;;
65053;SDS011;51639;47.828;35.038;2022-12-29T11:55:26;5.40;;;3.93;;
65053;SDS011;51639;47.828;35.038;2022-12-29T12:10:34;12.37;;;5.97;;
65053;SDS011;51639;47.828;35.038;2022-12-29T12:26:32;7.93;;;4.87;;
65053;SDS011;51639;47.828;35.038;2022-12-29T12:56:26;12.67;;;7.13;;
65053;SDS011;51639;47.828;35.038;2022-12-29T16:34:11;10.83;;;5.90;;
65053;SDS011;51639;47.828;35.038;2022-12-29T16:49:24;5.70;;;4.33;;
65053;SDS011;51639;47.828;35.038;2022-12-29T17:04:28;15.57;;;8.50;;
65053;SDS011;51639;47.828;35.038;2022-12-29T17:19:32;14.70;;;8.40;;
65053;SDS011;51639;47.828;35.038;2022-12-29T17:34:35;7.30;;;4.10;;
65053;SDS011;51639;47.828;35.038;2022-12-29T17:49:38;12.33;;;6.97;;
65053;SDS011;51639;47.828;35.038;2022-12-29T18:04:40;11.53;;;5.90;;
65053;SDS011;51639;47.828;35.038;2022-12-29T18:19:42;5.27;;;3.97;;
65053;SDS011;51639;47.828;35.038;2022-12-29T18:34:43;5.50;;;4.00;;
65053;SDS011;51639;47.828;35.038;2022-12-29T18:49:45;10.87;;;7.23;;
65053;SDS011;51639;47.828;35.038;2022-12-29T19:04:47;8.77;;;5.83;;
65053;SDS011;51639;47.828;35.038;2022-12-29T19:19:53;10.02;;;6.90;;
65053;SDS011;51639;47.828;35.038;2022-12-29T19:34:55;8.50;;;5.07;;
65053;SDS011;51639;47.828;35.038;2022-12-29T19:49:57;6.60;;;4.70;;
65053;SDS011;51639;47.828;35.038;2022-12-29T20:05:00;6.40;;;3.90;;
65053;SDS011;51639;47.828;35.038;2022-12-29T20:20:02;6.53;;;3.57;;
65053;SDS011;51639;47.828;35.038;2022-12-29T20:35:04;7.20;;;4.00;;
65053;SDS011;51639;47.828;35.038;2022-12-29T20:50:06;5.13;;;2.53;;
65053;SDS011;51639;47.828;35.038;2022-12-29T21:05:09;5.07;;;2.80;;
65053;SDS011;51639;47.828;35.038;2022-12-29T21:20:24;6.57;;;3.30;;
65053;SDS011;51639;47.828;35.038;2022-12-29T21:35:36;8.27;;;4.90;;
65053;SDS011;51639;47.828;35.038;2022-12-29T21:50:40;11.83;;;3.63;;
65053;SDS011;51639;47.828;35.038;2022-12-29T22:06:01;5.40;;;2.90;;
65053;SDS011;51639;47.828;35.038;2022-12-29T22:21:22;7.40;;;2.97;;
65053;SDS011;51639;47.828;35.038;2022-12-29T22:36:24;5.07;;;3.13;;
65053;SDS011;51639;47.828;35.038;2022-12-29T22:51:27;4.37;;;2.83;;
65053;SDS011;51639;47.828;35.038;2022-12-29T23:06:29;5.33;;;3.50;;
65053;SDS011;51639;47.828;35.038;2022-12-29T23:21:32;4.57;;;2.23;;
65053;SDS011;51639;47.828;35.038;2022-12-29T23:36:33;4.57;;;2.90;;
65053;SDS011;51639;47.828;35.038;2022-12-29T23:51:36;9.03;;;2.50;;
